sensor_id;sensor_type;location;lat;lon;timestamp;P1;durP1;ratioP1;P2;durP2;ratioP2
78774;SDS011;68119;43.398;3.676;2023-07-29T00:01:03;11.15;;;4.32;;
78774;SDS011;68119;43.398;3.676;2023-07-29T00:03:30;9.45;;;4.72;;
78774;SDS011;68119;43.398;3.676;2023-07-29T00:05:59;11.95;;;4.78;;
78774;SDS011;68119;43.398;3.676;2023-07-29T00:08:27;10.55;;;4.65;;
78774;SDS011;68119;43.398;3.676;2023-07-29T00:10:56;9.90;;;4.85;;
78774;SDS011;68119;43.398;3.676;2023-07-29T00:13:25;10.35;;;5.22;;
78774;SDS011;68119;43.398;3.676;2023-07-29T00:15:53;10.32;;;4.95;;
78774;SDS011;68119;43.398;3.676;2023-07-29T00:18:20;9.82;;;4.88;;
78774;SDS011;68119;43.398;3.676;2023-07-29T00:20:51;10.82;;;5.45;;
78774;SDS011;68119;43.398;3.676;2023-07-29T00:23:20;10.43;;;4.90;;
78774;SDS011;68119;43.398;3.676;2023-07-29T00:25:47;10.10;;;5.00;;
78774;SDS011;68119;43.398;3.676;2023-07-29T00:28:16;13.23;;;5.25;;
78774;SDS011;68119;43.398;3.676;2023-07-29T00:30:44;10.45;;;5.10;;
78774;SDS011;68119;43.398;3.676;2023-07-29T00:33:13;12.48;;;5.43;;
78774;SDS011;68119;43.398;3.676;2023-07-29T00:35:40;12.38;;;5.03;;
78774;SDS011;68119;43.398;3.676;2023-07-29T00:38:09;10.55;;;5.00;;
78774;SDS011;68119;43.398;3.676;2023-07-29T00:40:41;11.40;;;4.65;;
78774;SDS011;68119;43.398;3.676;2023-07-29T00:43:10;8.70;;;4.65;;
78774;SDS011;68119;43.398;3.676;2023-07-29T00:45:44;11.38;;;5.05;;
78774;SDS011;68119;43.398;3.676;2023-07-29T00:48:16;9.88;;;4.90;;
78774;SDS011;68119;43.398;3.676;2023-07-29T00:50:45;13.32;;;5.22;;
78774;SDS011;68119;43.398;3.676;2023-07-29T00:53:16;9.85;;;5.10;;
78774;SDS011;68119;43.398;3.676;2023-07-29T00:55:47;11.52;;;5.28;;
78774;SDS011;68119;43.398;3.676;2023-07-29T00:58:15;12.48;;;5.13;;
78774;SDS011;68119;43.398;3.676;2023-07-29T01:00:44;12.68;;;5.07;;
78774;SDS011;68119;43.398;3.676;2023-07-29T01:03:10;11.98;;;4.88;;
78774;SDS011;68119;43.398;3.676;2023-07-29T01:05:41;11.45;;;4.95;;
78774;SDS011;68119;43.398;3.676;2023-07-29T01:08:21;13.80;;;5.22;;
78774;SDS011;68119;43.398;3.676;2023-07-29T01:11:04;15.13;;;5.25;;
78774;SDS011;68119;43.398;3.676;2023-07-29T01:13:59;11.48;;;5.38;;
78774;SDS011;68119;43.398;3.676;2023-07-29T01:16:30;10.43;;;5.43;;
78774;SDS011;68119;43.398;3.676;2023-07-29T01:18:57;12.50;;;5.68;;
78774;SDS011;68119;43.398;3.676;2023-07-29T01:21:27;14.32;;;5.30;;
78774;SDS011;68119;43.398;3.676;2023-07-29T01:23:59;12.43;;;5.53;;
78774;SDS011;68119;43.398;3.676;2023-07-29T01:26:29;12.55;;;5.68;;
78774;SDS011;68119;43.398;3.676;2023-07-29T01:28:56;13.75;;;5.60;;
78774;SDS011;68119;43.398;3.676;2023-07-29T01:31:33;12.50;;;5.60;;
78774;SDS011;68119;43.398;3.676;2023-07-29T01:34:06;13.85;;;5.45;;
78774;SDS011;68119;43.398;3.676;2023-07-29T01:36:32;13.60;;;5.40;;
78774;SDS011;68119;43.398;3.676;2023-07-29T01:39:04;12.23;;;5.80;;
78774;SDS011;68119;43.398;3.676;2023-07-29T01:41:36;13.32;;;5.35;;
78774;SDS011;68119;43.398;3.676;2023-07-29T01:44:05;14.25;;;5.70;;
78774;SDS011;68119;43.398;3.676;2023-07-29T01:46:35;12.50;;;5.68;;
78774;SDS011;68119;43.398;3.676;2023-07-29T01:49:06;13.30;;;5.97;;
78774;SDS011;68119;43.398;3.676;2023-07-29T01:51:38;14.60;;;5.60;;
78774;SDS011;68119;43.398;3.676;2023-07-29T01:54:11;11.23;;;5.07;;
78774;SDS011;68119;43.398;3.676;2023-07-29T01:56:40;12.50;;;5.03;;
78774;SDS011;68119;43.398;3.676;2023-07-29T01:59:11;15.30;;;5.68;;
78774;SDS011;68119;43.398;3.676;2023-07-29T02:01:41;12.75;;;5.18;;
78774;SDS011;68119;43.398;3.676;2023-07-29T02:04:11;15.80;;;5.68;;
78774;SDS011;68119;43.398;3.676;2023-07-29T02:06:43;15.18;;;5.60;;
78774;SDS011;68119;43.398;3.676;2023-07-29T02:09:14;11.70;;;5.00;;
78774;SDS011;68119;43.398;3.676;2023-07-29T02:11:48;11.70;;;5.38;;
78774;SDS011;68119;43.398;3.676;2023-07-29T02:14:15;14.65;;;5.57;;
78774;SDS011;68119;43.398;3.676;2023-07-29T02:16:44;16.63;;;5.60;;
78774;SDS011;68119;43.398;3.676;2023-07-29T02:19:12;20.60;;;5.40;;
78774;SDS011;68119;43.398;3.676;2023-07-29T02:21:41;12.73;;;4.88;;
78774;SDS011;68119;43.398;3.676;2023-07-29T02:24:12;14.15;;;5.50;;
78774;SDS011;68119;43.398;3.676;2023-07-29T02:26:41;9.45;;;5.07;;
78774;SDS011;68119;43.398;3.676;2023-07-29T02:29:12;14.82;;;5.75;;
78774;SDS011;68119;43.398;3.676;2023-07-29T02:34:06;12.52;;;5.60;;
78774;SDS011;68119;43.398;3.676;2023-07-29T02:36:35;12.40;;;5.93;;
78774;SDS011;68119;43.398;3.676;2023-07-29T02:39:07;10.80;;;6.32;;
78774;SDS011;68119;43.398;3.676;2023-07-29T02:41:38;19.15;;;6.57;;
78774;SDS011;68119;43.398;3.676;2023-07-29T02:44:04;14.70;;;6.13;;
78774;SDS011;68119;43.398;3.676;2023-07-29T02:46:31;14.05;;;6.53;;
78774;SDS011;68119;43.398;3.676;2023-07-29T02:49:01;11.23;;;6.75;;
78774;SDS011;68119;43.398;3.676;2023-07-29T02:51:30;15.85;;;7.65;;
78774;SDS011;68119;43.398;3.676;2023-07-29T02:53:59;16.20;;;7.60;;
78774;SDS011;68119;43.398;3.676;2023-07-29T02:56:30;15.73;;;7.70;;
78774;SDS011;68119;43.398;3.676;2023-07-29T02:58:58;20.92;;;8.00;;
78774;SDS011;68119;43.398;3.676;2023-07-29T03:01:30;17.17;;;7.47;;
78774;SDS011;68119;43.398;3.676;2023-07-29T03:03:56;17.40;;;7.90;;
78774;SDS011;68119;43.398;3.676;2023-07-29T03:06:27;13.48;;;8.02;;
78774;SDS011;68119;43.398;3.676;2023-07-29T03:08:59;11.90;;;6.95;;
78774;SDS011;68119;43.398;3.676;2023-07-29T03:11:28;12.68;;;6.65;;
78774;SDS011;68119;43.398;3.676;2023-07-29T03:14:00;12.50;;;6.60;;
78774;SDS011;68119;43.398;3.676;2023-07-29T03:16:31;17.50;;;6.80;;
78774;SDS011;68119;43.398;3.676;2023-07-29T03:18:57;14.80;;;6.43;;
78774;SDS011;68119;43.398;3.676;2023-07-29T03:21:26;11.30;;;6.28;;
78774;SDS011;68119;43.398;3.676;2023-07-29T03:23:52;12.80;;;5.80;;
78774;SDS011;68119;43.398;3.676;2023-07-29T03:26:24;21.15;;;6.82;;
78774;SDS011;68119;43.398;3.676;2023-07-29T03:28:50;21.05;;;8.73;;
78774;SDS011;68119;43.398;3.676;2023-07-29T03:31:19;18.75;;;8.93;;
78774;SDS011;68119;43.398;3.676;2023-07-29T03:33:50;26.65;;;10.80;;
78774;SDS011;68119;43.398;3.676;2023-07-29T03:36:24;20.70;;;10.43;;
78774;SDS011;68119;43.398;3.676;2023-07-29T03:38:51;24.77;;;9.98;;
78774;SDS011;68119;43.398;3.676;2023-07-29T03:41:22;29.77;;;11.05;;
78774;SDS011;68119;43.398;3.676;2023-07-29T03:43:54;23.58;;;11.85;;
78774;SDS011;68119;43.398;3.676;2023-07-29T03:46:24;27.42;;;11.57;;
78774;SDS011;68119;43.398;3.676;2023-07-29T03:48:55;27.67;;;12.40;;
78774;SDS011;68119;43.398;3.676;2023-07-29T03:51:27;30.42;;;12.25;;
78774;SDS011;68119;43.398;3.676;2023-07-29T03:53:56;32.70;;;13.95;;
78774;SDS011;68119;43.398;3.676;2023-07-29T03:56:23;39.15;;;13.95;;
78774;SDS011;68119;43.398;3.676;2023-07-29T03:59:01;28.52;;;12.68;;
78774;SDS011;68119;43.398;3.676;2023-07-29T04:01:31;26.13;;;12.55;;
78774;SDS011;68119;43.398;3.676;2023-07-29T04:04:01;25.30;;;11.15;;
78774;SDS011;68119;43.398;3.676;2023-07-29T04:06:30;25.83;;;12.38;;
78774;SDS011;68119;43.398;3.676;2023-07-29T04:09:02;19.30;;;11.32;;
78774;SDS011;68119;43.398;3.676;2023-07-29T04:11:31;23.30;;;11.38;;
78774;SDS011;68119;43.398;3.676;2023-07-29T04:14:00;22.63;;;11.43;;
78774;SDS011;68119;43.398;3.676;2023-07-29T04:16:28;24.45;;;11.13;;
78774;SDS011;68119;43.398;3.676;2023-07-29T04:19:00;16.52;;;10.73;;
78774;SDS011;68119;43.398;3.676;2023-07-29T04:21:31;23.05;;;11.75;;
78774;SDS011;68119;43.398;3.676;2023-07-29T04:24:00;18.95;;;12.32;;
78774;SDS011;68119;43.398;3.676;2023-07-29T04:26:26;25.70;;;11.63;;
78774;SDS011;68119;43.398;3.676;2023-07-29T04:28:55;21.88;;;11.80;;
78774;SDS011;68119;43.398;3.676;2023-07-29T04:31:25;19.48;;;12.32;;
